createdAt,value
2018-12-07T00:01:28.067Z,55.85
2018-12-07T00:03:55.714Z,52.23
2018-12-07T00:06:23.308Z,50.03
2018-12-07T00:08:51.152Z,50.38
2018-12-07T00:11:19.883Z,52.85
2018-12-07T00:13:48.143Z,55.08
2018-12-07T00:16:16.214Z,50.17
2018-12-07T00:18:43.861Z,49.65
2018-12-07T00:21:11.391Z,45.30
2018-12-07T00:23:38.999Z,48.45
2018-12-07T00:26:06.964Z,45.78
2018-12-07T00:28:34.644Z,44.88
2018-12-07T00:31:02.051Z,42.78
2018-12-07T00:33:29.668Z,40.70
2018-12-07T00:35:57.334Z,41.33
2018-12-07T00:38:25.063Z,38.05
2018-12-07T00:40:52.444Z,44.58
2018-12-07T00:43:19.766Z,40.10
2018-12-07T00:45:47.205Z,41.02
2018-12-07T00:48:14.594Z,41.53
2018-12-07T00:50:41.919Z,40.23
2018-12-07T00:53:09.272Z,40.20
2018-12-07T00:55:37.931Z,36.45
2018-12-07T00:58:06.521Z,37.58
2018-12-07T01:00:33.861Z,40.90
2018-12-07T01:03:01.371Z,38.43
2018-12-07T01:05:28.728Z,38.30
2018-12-07T01:07:56.366Z,35.05
2018-12-07T01:10:23.771Z,34.23
2018-12-07T01:12:51.640Z,34.35
2018-12-07T01:15:19.020Z,34.63
2018-12-07T01:17:46.623Z,32.75
2018-12-07T01:20:14.411Z,34.63
2018-12-07T01:22:41.990Z,34.73
2018-12-07T01:25:09.368Z,31.10
2018-12-07T01:27:36.683Z,29.35
2018-12-07T01:30:04.532Z,30.65
2018-12-07T01:32:32.273Z,29.55
2018-12-07T01:34:59.839Z,26.73
2018-12-07T01:37:27.436Z,29.37
2018-12-07T01:39:55.307Z,28.05
2018-12-07T01:42:23.271Z,25.90
2018-12-07T01:44:51.202Z,27.43
2018-12-07T01:47:18.618Z,25.75
2018-12-07T01:49:45.984Z,24.80
2018-12-07T01:52:13.577Z,23.73
2018-12-07T01:54:41.256Z,25.00
2018-12-07T01:57:08.843Z,20.55
2018-12-07T01:59:36.254Z,22.83
2018-12-07T02:02:03.866Z,22.73
2018-12-07T02:04:31.933Z,20.88
2018-12-07T02:07:00.307Z,21.40
2018-12-07T02:09:27.973Z,20.25
2018-12-07T02:11:56.089Z,20.62
2018-12-07T02:14:24.020Z,19.50
2018-12-07T02:16:52.595Z,17.65
2018-12-07T02:19:20.664Z,16.85
2018-12-07T02:21:48.331Z,16.20
2018-12-07T02:24:16.198Z,18.27
2018-12-07T02:26:43.863Z,14.58
2018-12-07T02:29:11.218Z,15.70
2018-12-07T02:31:39.197Z,17.40
2018-12-07T02:34:06.839Z,16.17
2018-12-07T02:36:34.184Z,17.23
2018-12-07T02:39:01.535Z,18.07
2018-12-07T02:41:29.387Z,15.70
2018-12-07T02:43:56.747Z,18.30
2018-12-07T02:46:24.071Z,16.62
2018-12-07T02:48:52.204Z,14.55
2018-12-07T02:51:20.483Z,16.27
2018-12-07T02:53:47.882Z,15.75
2018-12-07T02:56:15.215Z,16.55
2018-12-07T02:58:43.169Z,15.32
2018-12-07T03:01:10.585Z,14.28
2018-12-07T03:03:37.934Z,15.38
2018-12-07T03:06:05.906Z,15.70
2018-12-07T03:08:33.546Z,14.50
2018-12-07T03:11:00.931Z,15.88
2018-12-07T03:13:28.529Z,16.20
2018-12-07T03:15:56.188Z,15.75
2018-12-07T03:18:32.507Z,14.80
2018-12-07T03:21:00.323Z,15.50
2018-12-07T03:23:27.656Z,13.72
2018-12-07T03:25:55.744Z,13.07
2018-12-07T03:28:24.128Z,14.10
2018-12-07T03:30:51.438Z,13.95
2018-12-07T03:33:19.674Z,14.00
2018-12-07T03:35:47.819Z,13.35
2018-12-07T03:38:15.447Z,14.85
2018-12-07T03:40:43.155Z,13.53
2018-12-07T03:43:11.086Z,12.33
2018-12-07T03:45:38.687Z,13.58
2018-12-07T03:48:06.059Z,11.30
2018-12-07T03:50:33.440Z,11.30
2018-12-07T03:53:01.061Z,10.80
2018-12-07T03:55:29.032Z,12.23
2018-12-07T03:57:56.679Z,9.98
2018-12-07T04:00:24.046Z,10.20
2018-12-07T04:02:51.867Z,11.30
2018-12-07T04:05:19.688Z,11.00
2018-12-07T04:07:47.349Z,13.43
2018-12-07T04:10:15.908Z,9.50
2018-12-07T04:12:43.572Z,9.70
2018-12-07T04:15:10.949Z,10.88
2018-12-07T04:17:39.016Z,10.95
2018-12-07T04:20:06.681Z,11.48
2018-12-07T04:22:34.341Z,9.78
2018-12-07T04:25:01.749Z,12.43
2018-12-07T04:27:29.062Z,10.37
2018-12-07T04:30:02.348Z,9.80
2018-12-07T04:32:29.993Z,11.25
2018-12-07T04:34:57.983Z,11.70
2018-12-07T04:37:25.681Z,9.20
2018-12-07T04:39:54.010Z,11.00
2018-12-07T04:42:21.352Z,12.00
2018-12-07T04:44:49.243Z,10.48
2018-12-07T04:47:16.906Z,10.38
2018-12-07T04:49:44.223Z,11.08
2018-12-07T04:52:12.130Z,10.55
2018-12-07T04:54:39.818Z,9.63
2018-12-07T04:57:08.480Z,10.00
2018-12-07T04:59:35.905Z,10.63
2018-12-07T05:02:03.604Z,11.05
2018-12-07T05:04:31.037Z,10.82
2018-12-07T05:09:32.401Z,10.58
2018-12-07T05:12:00.060Z,12.63
2018-12-07T05:14:27.616Z,11.30
2018-12-07T05:16:55.427Z,10.75
2018-12-07T05:19:22.760Z,10.23
2018-12-07T05:21:50.424Z,10.30
2018-12-07T05:24:18.090Z,9.38
2018-12-07T05:26:45.391Z,9.85
2018-12-07T05:29:12.998Z,12.23
2018-12-07T05:31:40.732Z,10.25
2018-12-07T05:34:08.385Z,12.00
2018-12-07T05:36:37.834Z,9.45
2018-12-07T05:39:06.787Z,11.15
2018-12-07T05:41:34.103Z,11.90
2018-12-07T05:44:01.505Z,12.98
2018-12-07T05:46:29.095Z,12.40
2018-12-07T05:48:56.663Z,10.85
2018-12-07T05:51:24.003Z,11.07
2018-12-07T05:53:51.671Z,10.20
2018-12-07T05:56:19.324Z,10.40
2018-12-07T05:58:46.671Z,11.60
2018-12-07T06:01:14.043Z,10.43
2018-12-07T06:03:41.612Z,10.10
2018-12-07T06:06:09.231Z,8.78
2018-12-07T06:08:36.593Z,10.27
2018-12-07T06:11:03.906Z,10.82
2018-12-07T06:13:31.843Z,7.53
2018-12-07T06:15:59.513Z,7.28
2018-12-07T06:18:27.141Z,6.80
2018-12-07T06:20:54.505Z,7.10
2018-12-07T06:23:22.142Z,7.90
2018-12-07T06:25:49.748Z,6.60
2018-12-07T06:28:17.071Z,8.18
2018-12-07T06:30:44.764Z,8.20
2018-12-07T06:33:12.168Z,6.72
2018-12-07T06:35:39.491Z,5.45
2018-12-07T06:38:07.193Z,7.50
2018-12-07T06:40:35.373Z,8.70
2018-12-07T06:43:03.283Z,7.70
2018-12-07T06:45:31.027Z,8.23
2018-12-07T06:47:58.376Z,5.67
2018-12-07T06:50:25.727Z,5.33
2018-12-07T06:52:53.411Z,8.10
2018-12-07T06:55:21.145Z,5.70
2018-12-07T06:57:48.814Z,7.15
2018-12-07T07:00:17.093Z,7.17
2018-12-07T07:02:44.796Z,5.60
2018-12-07T07:05:13.375Z,6.25
2018-12-07T07:07:41.352Z,8.80
2018-12-07T07:10:09.112Z,6.33
2018-12-07T07:12:37.084Z,6.90
2018-12-07T07:15:05.420Z,5.83
2018-12-07T07:17:33.120Z,6.97
2018-12-07T07:20:00.476Z,7.97
2018-12-07T07:22:28.394Z,7.28
2018-12-07T07:24:55.761Z,6.97
2018-12-07T07:27:23.669Z,7.90
2018-12-07T07:29:51.297Z,7.70
2018-12-07T07:32:18.951Z,8.90
2018-12-07T07:34:46.271Z,7.87
2018-12-07T07:37:13.906Z,6.45
2018-12-07T07:39:41.524Z,7.60
2018-12-07T07:42:08.862Z,10.20
2018-12-07T07:44:36.683Z,8.80
2018-12-07T07:47:04.392Z,11.33
2018-12-07T07:49:32.075Z,9.43
2018-12-07T07:51:59.363Z,11.60
2018-12-07T07:54:28.259Z,10.00
2018-12-07T07:56:55.968Z,8.10
2018-12-07T07:59:23.611Z,9.13
2018-12-07T08:01:51.662Z,8.10
2018-12-07T08:04:19.215Z,8.97
2018-12-07T08:06:46.993Z,12.15
2018-12-07T08:09:15.218Z,7.10
2018-12-07T08:11:42.558Z,9.85
2018-12-07T08:14:10.167Z,10.28
2018-12-07T08:16:38.451Z,9.13
2018-12-07T08:19:05.772Z,9.10
2018-12-07T08:21:33.120Z,9.83
2018-12-07T08:24:01.435Z,8.75
2018-12-07T08:26:29.051Z,10.00
2018-12-07T08:28:56.944Z,10.53
2018-12-07T08:31:24.628Z,11.48
2018-12-07T08:33:53.075Z,7.00
2018-12-07T08:36:20.776Z,8.40
2018-12-07T08:38:48.415Z,7.58
2018-12-07T08:41:16.108Z,7.80
2018-12-07T08:43:44.541Z,8.63
2018-12-07T08:46:11.863Z,7.60
2018-12-07T08:48:39.404Z,9.40
2018-12-07T08:51:07.370Z,8.80
2018-12-07T08:53:34.757Z,11.65
2018-12-07T08:56:02.379Z,8.93
2018-12-07T08:58:30.068Z,8.60
2018-12-07T09:00:57.821Z,7.30
2018-12-07T09:03:25.287Z,8.13
2018-12-07T09:05:52.696Z,7.45
2018-12-07T09:08:20.095Z,6.65
2018-12-07T09:10:47.447Z,5.72
2018-12-07T09:13:14.734Z,6.00
2018-12-07T09:15:42.035Z,6.25
2018-12-07T09:18:09.706Z,5.55
2018-12-07T09:20:37.356Z,5.30
2018-12-07T09:23:04.723Z,5.80
2018-12-07T09:25:32.417Z,5.20
2018-12-07T09:27:59.881Z,13.40
2018-12-07T09:30:27.504Z,4.90
2018-12-07T09:32:54.875Z,4.87
2018-12-07T09:35:22.523Z,4.80
2018-12-07T09:37:50.355Z,3.80
2018-12-07T09:40:18.017Z,4.15
2018-12-07T09:42:45.671Z,4.00
2018-12-07T09:45:13.385Z,4.55
2018-12-07T09:47:41.131Z,4.95
2018-12-07T09:50:09.000Z,3.60
2018-12-07T09:52:36.571Z,3.20
2018-12-07T09:55:04.352Z,4.20
2018-12-07T09:57:31.734Z,3.55
2018-12-07T09:59:59.104Z,3.85
2018-12-07T10:02:26.614Z,5.53
2018-12-07T10:04:54.988Z,4.00
2018-12-07T10:07:22.625Z,3.40
2018-12-07T10:09:52.602Z,4.70
2018-12-07T10:12:23.631Z,3.10
2018-12-07T10:14:52.687Z,2.80
2018-12-07T10:17:21.161Z,3.90
2018-12-07T10:19:48.565Z,3.87
2018-12-07T10:22:15.928Z,3.25
2018-12-07T10:24:43.253Z,4.10
2018-12-07T10:27:11.538Z,2.90
2018-12-07T10:29:38.889Z,3.77
2018-12-07T10:32:06.223Z,3.12
2018-12-07T10:34:34.058Z,5.30
2018-12-07T10:37:02.020Z,5.25
2018-12-07T10:39:30.424Z,5.83
2018-12-07T10:41:58.017Z,4.20
2018-12-07T10:44:25.652Z,3.20
2018-12-07T10:46:53.652Z,3.77
2018-12-07T10:49:21.360Z,3.90
2018-12-07T10:51:49.077Z,3.52
2018-12-07T10:54:16.432Z,3.90
2018-12-07T10:56:43.989Z,3.10
2018-12-07T10:59:11.343Z,3.67
2018-12-07T11:01:44.242Z,4.50
2018-12-07T11:04:17.940Z,4.30
2018-12-07T11:06:52.047Z,3.70
2018-12-07T11:09:25.136Z,4.40
2018-12-07T11:11:58.082Z,3.00
2018-12-07T11:14:30.889Z,3.50
2018-12-07T11:17:03.619Z,4.70
2018-12-07T11:20:35.974Z,3.15
2018-12-07T11:23:08.791Z,3.40
2018-12-07T11:25:41.627Z,3.45
2018-12-07T11:28:14.575Z,2.10
2018-12-07T11:30:47.396Z,2.40
2018-12-07T11:33:56.707Z,2.37
2018-12-07T11:36:24.366Z,2.72
2018-12-07T11:38:51.786Z,2.37
2018-12-07T11:41:20.425Z,5.17
2018-12-07T11:43:48.072Z,2.30
2018-12-07T11:46:15.447Z,2.83
2018-12-07T11:48:42.816Z,2.47
2018-12-07T11:51:10.988Z,3.35
2018-12-07T11:53:39.020Z,2.90
2018-12-07T11:56:07.478Z,2.40
2018-12-07T11:58:35.023Z,2.95
2018-12-07T12:01:02.956Z,3.70
2018-12-07T12:03:30.536Z,3.20
2018-12-07T12:05:57.912Z,3.55
2018-12-07T12:08:25.257Z,3.90
2018-12-07T12:10:53.109Z,3.30
2018-12-07T12:13:20.762Z,3.70
2018-12-07T12:15:48.757Z,4.28
2018-12-07T12:18:16.125Z,2.75
2018-12-07T12:20:44.227Z,3.08
2018-12-07T12:23:12.014Z,5.58
2018-12-07T12:25:39.603Z,3.10
2018-12-07T12:28:07.344Z,4.77
2018-12-07T12:30:34.871Z,5.45
2018-12-07T12:33:02.492Z,4.60
2018-12-07T12:35:29.866Z,2.75
2018-12-07T12:37:57.187Z,2.90
2018-12-07T12:40:24.868Z,3.30
2018-12-07T12:42:52.329Z,3.30
2018-12-07T12:45:20.611Z,2.85
2018-12-07T12:47:48.303Z,3.98
2018-12-07T12:50:21.152Z,1.90
2018-12-07T12:52:48.506Z,2.83
2018-12-07T12:55:16.900Z,3.40
2018-12-07T12:57:44.854Z,3.10
2018-12-07T13:00:12.287Z,2.40
2018-12-07T13:02:39.896Z,2.37
2018-12-07T13:05:07.739Z,1.93
2018-12-07T13:07:35.199Z,2.00
2018-12-07T13:10:03.041Z,2.65
2018-12-07T13:12:30.677Z,3.00
2018-12-07T13:14:58.019Z,2.87
2018-12-07T13:17:25.315Z,4.30
2018-12-07T13:19:52.995Z,3.63
2018-12-07T13:22:20.469Z,2.60
2018-12-07T13:24:48.179Z,2.20
2018-12-07T13:27:15.509Z,2.12
2018-12-07T13:29:43.561Z,3.30
2018-12-07T13:32:10.934Z,2.75
2018-12-07T13:34:38.559Z,2.10
2018-12-07T13:37:06.187Z,2.05
2018-12-07T13:39:34.205Z,2.60
2018-12-07T13:42:01.759Z,1.80
2018-12-07T13:44:30.221Z,2.60
2018-12-07T13:46:57.793Z,2.40
2018-12-07T13:49:25.546Z,1.70
2018-12-07T13:51:53.022Z,1.80
2018-12-07T13:54:20.506Z,2.47
2018-12-07T13:56:48.084Z,2.30
2018-12-07T13:59:15.589Z,2.20
2018-12-07T14:01:43.918Z,1.80
2018-12-07T14:04:11.385Z,3.95
2018-12-07T14:06:38.727Z,1.75
2018-12-07T14:09:07.150Z,2.37
2018-12-07T14:11:34.978Z,2.70
2018-12-07T14:14:02.442Z,3.20
2018-12-07T14:16:30.034Z,3.50
2018-12-07T14:19:09.679Z,3.40
2018-12-07T14:21:37.213Z,2.90
2018-12-07T14:24:05.030Z,3.60
2018-12-07T14:26:33.265Z,3.10
2018-12-07T14:29:01.345Z,3.30
2018-12-07T14:31:29.490Z,5.50
2018-12-07T14:33:57.652Z,3.70
2018-12-07T14:36:25.662Z,4.00
2018-12-07T14:38:53.267Z,4.90
2018-12-07T14:41:20.647Z,4.80
2018-12-07T14:43:48.271Z,4.10
2018-12-07T14:46:15.681Z,4.70
2018-12-07T14:48:43.213Z,4.00
2018-12-07T14:51:11.066Z,5.20
2018-12-07T14:53:39.091Z,8.20
2018-12-07T14:56:07.677Z,5.20
2018-12-07T14:58:35.231Z,5.55
2018-12-07T15:01:02.808Z,5.80
2018-12-07T15:03:30.242Z,5.25
2018-12-07T15:05:57.797Z,6.22
2018-12-07T15:08:25.666Z,6.62
2018-12-07T15:10:53.493Z,6.80
2018-12-07T15:13:21.086Z,6.97
2018-12-07T15:15:48.796Z,7.62
2018-12-07T15:18:16.670Z,7.40
2018-12-07T15:20:44.072Z,7.75
2018-12-07T15:23:11.941Z,7.20
2018-12-07T15:25:39.632Z,7.00
2018-12-07T15:28:07.568Z,7.40
2018-12-07T15:30:35.501Z,6.65
2018-12-07T15:33:03.176Z,6.50
2018-12-07T15:35:30.763Z,6.40
2018-12-07T15:37:58.948Z,6.67
2018-12-07T15:40:26.649Z,6.60
2018-12-07T15:42:54.513Z,7.00
2018-12-07T15:45:22.661Z,7.33
2018-12-07T15:47:50.956Z,7.80
2018-12-07T15:50:25.054Z,8.83
2018-12-07T15:52:48.184Z,7.92
2018-12-07T15:55:15.779Z,8.95
2018-12-07T15:57:43.595Z,8.50
2018-12-07T16:00:11.014Z,8.53
2018-12-07T16:02:38.368Z,9.88
2018-12-07T16:05:06.560Z,7.25
2018-12-07T16:07:34.226Z,8.00
2018-12-07T16:10:02.164Z,8.13
2018-12-07T16:12:30.045Z,7.78
2018-12-07T16:14:58.194Z,7.87
2018-12-07T16:17:25.656Z,7.83
2018-12-07T16:19:53.501Z,7.80
2018-12-07T16:22:21.440Z,10.20
2018-12-07T16:24:49.127Z,7.67
2018-12-07T16:27:16.753Z,10.53
2018-12-07T16:29:44.552Z,8.53
2018-12-07T16:32:12.551Z,8.30
2018-12-07T16:34:40.497Z,9.58
2018-12-07T16:37:08.300Z,10.13
2018-12-07T16:39:35.877Z,10.40
2018-12-07T16:42:03.782Z,10.10
2018-12-07T16:44:31.531Z,9.85
2018-12-07T16:46:59.184Z,9.00
2018-12-07T16:49:26.561Z,9.63
2018-12-07T16:51:54.314Z,10.63
2018-12-07T16:54:22.703Z,9.20
2018-12-07T16:56:50.200Z,9.60
2018-12-07T16:59:17.909Z,11.30
2018-12-07T17:01:46.385Z,10.18
2018-12-07T17:04:14.122Z,9.13
2018-12-07T17:06:41.573Z,11.08
2018-12-07T17:09:09.389Z,11.10
2018-12-07T17:11:36.889Z,11.63
2018-12-07T17:14:05.997Z,10.20
2018-12-07T17:16:33.714Z,10.50
2018-12-07T17:19:01.663Z,14.85
2018-12-07T17:21:29.758Z,12.85
2018-12-07T17:23:58.038Z,13.90
2018-12-07T17:26:31.676Z,15.03
2018-12-07T17:28:59.382Z,13.13
2018-12-07T17:31:27.197Z,15.25
2018-12-07T17:33:54.780Z,12.75
2018-12-07T17:36:23.138Z,15.32
2018-12-07T17:38:50.611Z,13.65
2018-12-07T17:41:19.034Z,12.37
2018-12-07T17:43:46.401Z,13.22
2018-12-07T17:46:14.475Z,12.45
2018-12-07T17:48:41.983Z,12.05
2018-12-07T17:51:09.881Z,12.45
2018-12-07T17:53:38.444Z,11.48
2018-12-07T17:56:06.356Z,13.20
2018-12-07T17:58:34.425Z,12.45
2018-12-07T18:01:02.234Z,10.63
2018-12-07T18:03:30.000Z,13.83
2018-12-07T18:05:58.045Z,13.98
2018-12-07T18:08:25.823Z,10.43
2018-12-07T18:10:53.758Z,11.08
2018-12-07T18:13:21.459Z,11.47
2018-12-07T18:15:48.957Z,12.50
2018-12-07T18:18:16.619Z,10.13
2018-12-07T18:20:44.054Z,11.30
2018-12-07T18:23:12.165Z,11.00
2018-12-07T18:25:40.073Z,10.53
2018-12-07T18:28:07.603Z,11.93
2018-12-07T18:30:35.483Z,11.40
2018-12-07T18:33:03.229Z,11.55
2018-12-07T18:35:31.181Z,11.15
2018-12-07T18:37:58.534Z,12.93
2018-12-07T18:40:26.376Z,10.37
2018-12-07T18:42:54.578Z,11.15
2018-12-07T18:45:22.746Z,9.93
2018-12-07T18:47:50.375Z,10.40
2018-12-07T18:50:17.949Z,9.95
2018-12-07T18:52:45.746Z,8.55
2018-12-07T18:55:13.215Z,9.45
2018-12-07T18:57:40.727Z,9.88
2018-12-07T19:00:09.370Z,10.35
2018-12-07T19:02:36.804Z,7.37
2018-12-07T19:05:04.611Z,8.15
2018-12-07T19:07:32.305Z,9.13
2018-12-07T19:10:00.199Z,8.60
2018-12-07T19:12:27.936Z,8.00
2018-12-07T19:14:55.563Z,8.60
2018-12-07T19:17:22.985Z,8.03
2018-12-07T19:19:50.747Z,10.82
2018-12-07T19:22:18.599Z,7.30
2018-12-07T19:24:46.375Z,8.68
2018-12-07T19:27:14.125Z,10.28
2018-12-07T19:29:41.960Z,7.80
2018-12-07T19:32:09.477Z,6.90
2018-12-07T19:34:36.938Z,7.00
2018-12-07T19:37:04.682Z,7.17
2018-12-07T19:39:32.311Z,9.13
2018-12-07T19:42:01.164Z,6.37
2018-12-07T19:44:29.047Z,5.30
2018-12-07T19:46:56.674Z,5.55
2018-12-07T19:49:25.095Z,5.72
2018-12-07T19:51:52.534Z,6.72
2018-12-07T19:54:19.891Z,5.53
2018-12-07T19:56:47.222Z,7.30
2018-12-07T19:59:15.267Z,4.62
2018-12-07T20:01:42.725Z,4.47
2018-12-07T20:04:10.683Z,7.10
2018-12-07T20:06:38.877Z,7.78
2018-12-07T20:09:07.426Z,4.45
2018-12-07T20:11:35.146Z,7.00
2018-12-07T20:14:03.260Z,3.60
2018-12-07T20:16:31.141Z,6.80
2018-12-07T20:18:59.280Z,4.37
2018-12-07T20:21:26.821Z,3.80
2018-12-07T20:23:54.400Z,4.55
2018-12-07T20:26:21.911Z,4.60
2018-12-07T20:28:49.515Z,3.40
2018-12-07T20:31:17.520Z,3.52
2018-12-07T20:33:45.392Z,2.80
2018-12-07T20:36:13.263Z,2.50
2018-12-07T20:38:41.066Z,3.00
2018-12-07T20:41:08.773Z,3.40
2018-12-07T20:43:37.136Z,6.03
2018-12-07T20:46:05.114Z,3.10
2018-12-07T20:48:33.407Z,3.42
2018-12-07T20:51:01.339Z,5.10
2018-12-07T20:53:29.069Z,3.65
2018-12-07T20:55:57.330Z,4.20
2018-12-07T20:58:25.181Z,5.58
2018-12-07T21:00:59.293Z,3.50
2018-12-07T21:04:35.573Z,5.00
2018-12-07T21:08:13.112Z,4.30
2018-12-07T21:11:13.898Z,3.60
2018-12-07T21:14:04.810Z,4.40
2018-12-07T21:17:01.675Z,3.85
2018-12-07T21:19:29.601Z,5.70
2018-12-07T21:21:57.579Z,4.25
2018-12-07T21:24:25.319Z,5.10
2018-12-07T21:26:53.982Z,4.05
2018-12-07T21:29:21.522Z,5.10
2018-12-07T21:31:49.246Z,5.22
2018-12-07T21:34:25.704Z,4.08
2018-12-07T21:36:53.382Z,4.87
2018-12-07T21:39:29.236Z,3.80
2018-12-07T21:41:56.719Z,20.52
2018-12-07T21:44:24.292Z,2.50
2018-12-07T21:46:52.075Z,3.83
2018-12-07T21:49:19.611Z,3.60
2018-12-07T21:51:53.573Z,3.15
2018-12-07T21:54:21.243Z,4.75
2018-12-07T21:56:49.194Z,5.00
2018-12-07T21:59:16.965Z,4.50
2018-12-07T22:01:44.574Z,2.90
2018-12-07T22:04:12.136Z,1.98
2018-12-07T22:06:40.068Z,5.25
2018-12-07T22:09:07.639Z,2.70
2018-12-07T22:11:35.846Z,3.58
2018-12-07T22:14:03.761Z,3.45
2018-12-07T22:16:31.191Z,5.05
2018-12-07T22:18:58.998Z,6.95
2018-12-07T22:21:26.520Z,1.90
2018-12-07T22:23:54.767Z,4.62
2018-12-07T22:26:22.447Z,5.37
2018-12-07T22:28:50.328Z,3.92
2018-12-07T22:31:18.352Z,7.22
2018-12-07T22:33:45.799Z,6.17
2018-12-07T22:36:13.401Z,7.67
2018-12-07T22:38:40.887Z,5.93
2018-12-07T22:41:08.469Z,9.95
2018-12-07T22:43:35.949Z,9.63
2018-12-07T22:46:03.574Z,9.08
2018-12-07T22:48:31.524Z,9.35
2018-12-07T22:50:59.497Z,10.32
2018-12-07T22:53:26.833Z,10.40
2018-12-07T22:55:54.308Z,8.50
2018-12-07T22:58:21.655Z,9.88
2018-12-07T23:00:49.388Z,8.90
2018-12-07T23:03:16.735Z,14.35
2018-12-07T23:05:44.666Z,11.30
2018-12-07T23:08:12.836Z,14.90
2018-12-07T23:10:40.633Z,14.33
2018-12-07T23:13:09.191Z,10.07
2018-12-07T23:15:37.943Z,12.65
2018-12-07T23:18:05.611Z,13.32
2018-12-07T23:20:33.224Z,8.35
2018-12-07T23:23:00.946Z,10.70
2018-12-07T23:25:29.400Z,13.45
2018-12-07T23:27:58.550Z,14.68
2018-12-07T23:30:26.027Z,16.05
2018-12-07T23:32:53.838Z,11.48
2018-12-07T23:35:22.176Z,14.07
2018-12-07T23:37:50.047Z,11.08
2018-12-07T23:40:17.811Z,11.55
2018-12-07T23:42:46.745Z,10.85
2018-12-07T23:45:14.983Z,12.82
2018-12-07T23:47:42.654Z,12.93
2018-12-07T23:50:10.669Z,14.47
2018-12-07T23:52:38.563Z,14.68
2018-12-07T23:55:06.864Z,11.80
2018-12-07T23:57:34.538Z,13.85
